sensor_id;sensor_type;location;lat;lon;timestamp;pressure;altitude;pressure_sealevel;temperature;humidity
26112;BME280;13829;48.990;8.346;2024-02-15T00:00:48;100936.50;;;11.43;100.00
26112;BME280;13829;48.990;8.346;2024-02-15T00:03:15;100930.41;;;11.49;100.00
26112;BME280;13829;48.990;8.346;2024-02-15T00:05:44;100928.81;;;11.63;100.00
26112;BME280;13829;48.990;8.346;2024-02-15T00:08:12;100929.63;;;11.57;100.00
26112;BME280;13829;48.990;8.346;2024-02-15T00:10:40;100920.06;;;11.70;100.00
26112;BME280;13829;48.990;8.346;2024-02-15T00:13:07;100920.91;;;11.66;100.00
26112;BME280;13829;48.990;8.346;2024-02-15T00:15:34;100927.03;;;11.64;100.00
26112;BME280;13829;48.990;8.346;2024-02-15T00:18:04;100921.88;;;11.73;100.00
26112;BME280;13829;48.990;8.346;2024-02-15T00:20:31;100917.47;;;11.75;100.00
26112;BME280;13829;48.990;8.346;2024-02-15T00:22:59;100923.53;;;11.65;100.00
26112;BME280;13829;48.990;8.346;2024-02-15T00:25:26;100927.03;;;11.61;100.00
26112;BME280;13829;48.990;8.346;2024-02-15T00:27:53;100920.97;;;11.71;100.00
26112;BME280;13829;48.990;8.346;2024-02-15T00:30:20;100926.13;;;11.58;100.00
26112;BME280;13829;48.990;8.346;2024-02-15T00:32:47;100922.63;;;11.56;100.00
26112;BME280;13829;48.990;8.346;2024-02-15T00:35:15;100930.41;;;11.47;100.00
26112;BME280;13829;48.990;8.346;2024-02-15T00:37:42;100918.94;;;11.43;100.00
26112;BME280;13829;48.990;8.346;2024-02-15T00:40:10;100922.44;;;11.39;100.00
26112;BME280;13829;48.990;8.346;2024-02-15T00:42:37;100925.00;;;11.35;100.00
26112;BME280;13829;48.990;8.346;2024-02-15T00:45:05;100928.53;;;11.34;100.00
26112;BME280;13829;48.990;8.346;2024-02-15T00:47:33;100920.66;;;11.35;100.00
26112;BME280;13829;48.990;8.346;2024-02-15T00:50:00;100919.75;;;11.35;100.00
26112;BME280;13829;48.990;8.346;2024-02-15T00:52:30;100919.72;;;11.29;100.00
26112;BME280;13829;48.990;8.346;2024-02-15T00:54:57;100919.72;;;11.33;100.00
26112;BME280;13829;48.990;8.346;2024-02-15T00:57:24;100918.81;;;11.30;100.00
26112;BME280;13829;48.990;8.346;2024-02-15T00:59:51;100915.25;;;11.26;100.00
26112;BME280;13829;48.990;8.346;2024-02-15T01:02:18;100915.25;;;11.24;100.00
26112;BME280;13829;48.990;8.346;2024-02-15T01:04:45;100903.81;;;11.21;100.00
26112;BME280;13829;48.990;8.346;2024-02-15T01:07:12;100909.81;;;11.06;100.00
26112;BME280;13829;48.990;8.346;2024-02-15T01:09:41;100906.19;;;10.96;100.00
26112;BME280;13829;48.990;8.346;2024-02-15T01:12:08;100903.34;;;10.79;100.00
26112;BME280;13829;48.990;8.346;2024-02-15T01:14:36;100905.94;;;10.74;100.00
26112;BME280;13829;48.990;8.346;2024-02-15T01:17:03;100908.50;;;10.70;100.00
26112;BME280;13829;48.990;8.346;2024-02-15T01:19:30;100904.91;;;10.65;100.00
26112;BME280;13829;48.990;8.346;2024-02-15T01:21:57;100911.03;;;10.64;100.00
26112;BME280;13829;48.990;8.346;2024-02-15T01:24:25;100915.41;;;10.62;100.00
26112;BME280;13829;48.990;8.346;2024-02-15T01:26:53;100916.28;;;10.60;100.00
26112;BME280;13829;48.990;8.346;2024-02-15T01:29:20;100911.09;;;10.68;100.00
26112;BME280;13829;48.990;8.346;2024-02-15T01:31:47;100918.16;;;10.72;100.00
26112;BME280;13829;48.990;8.346;2024-02-15T01:34:14;100913.84;;;10.79;100.00
26112;BME280;13829;48.990;8.346;2024-02-15T01:36:41;100918.28;;;10.82;100.00
26112;BME280;13829;48.990;8.346;2024-02-15T01:39:08;100918.34;;;10.85;100.00
26112;BME280;13829;48.990;8.346;2024-02-15T01:41:35;100909.59;;;10.89;100.00
26112;BME280;13829;48.990;8.346;2024-02-15T01:44:04;100911.47;;;10.98;100.00
26112;BME280;13829;48.990;8.346;2024-02-15T01:46:33;100907.97;;;10.99;100.00
26112;BME280;13829;48.990;8.346;2024-02-15T01:49:00;100908.06;;;11.08;100.00
26112;BME280;13829;48.990;8.346;2024-02-15T01:51:27;100915.09;;;11.10;100.00
26112;BME280;13829;48.990;8.346;2024-02-15T01:53:55;100905.53;;;11.17;100.00
26112;BME280;13829;48.990;8.346;2024-02-15T01:56:23;100909.06;;;11.19;100.00
26112;BME280;13829;48.990;8.346;2024-02-15T01:58:51;100907.34;;;11.21;100.00
26112;BME280;13829;48.990;8.346;2024-02-15T02:01:21;100905.56;;;11.23;100.00
26112;BME280;13829;48.990;8.346;2024-02-15T02:03:48;100904.72;;;11.24;100.00
26112;BME280;13829;48.990;8.346;2024-02-15T02:06:16;100905.63;;;11.26;100.00
26112;BME280;13829;48.990;8.346;2024-02-15T02:08:43;100904.78;;;11.29;100.00
26112;BME280;13829;48.990;8.346;2024-02-15T02:11:10;100899.53;;;11.32;100.00
26112;BME280;13829;48.990;8.346;2024-02-15T02:13:37;100898.66;;;11.35;100.00
26112;BME280;13829;48.990;8.346;2024-02-15T02:16:04;100893.47;;;11.41;100.00
26112;BME280;13829;48.990;8.346;2024-02-15T02:18:33;100896.97;;;11.40;100.00
26112;BME280;13829;48.990;8.346;2024-02-15T02:21:01;100900.50;;;11.39;100.00
26112;BME280;13829;48.990;8.346;2024-02-15T02:23:31;100894.34;;;11.40;100.00
26112;BME280;13829;48.990;8.346;2024-02-15T02:26:01;100893.47;;;11.41;100.00
26112;BME280;13829;48.990;8.346;2024-02-15T02:28:28;100879.44;;;11.42;100.00
26112;BME280;13829;48.990;8.346;2024-02-15T02:30:55;100882.97;;;11.44;100.00
26112;BME280;13829;48.990;8.346;2024-02-15T02:33:22;100885.63;;;11.46;100.00
26112;BME280;13829;48.990;8.346;2024-02-15T02:35:50;100884.75;;;11.48;100.00
26112;BME280;13829;48.990;8.346;2024-02-15T02:38:18;100881.22;;;11.43;100.00
26112;BME280;13829;48.990;8.346;2024-02-15T02:40:45;100889.09;;;11.43;100.00
26112;BME280;13829;48.990;8.346;2024-02-15T02:43:14;100881.22;;;11.46;100.00
26112;BME280;13829;48.990;8.346;2024-02-15T02:45:40;100880.34;;;11.44;100.00
26112;BME280;13829;48.990;8.346;2024-02-15T02:48:08;100876.88;;;11.48;100.00
26112;BME280;13829;48.990;8.346;2024-02-15T02:50:35;100879.50;;;11.48;100.00
26112;BME280;13829;48.990;8.346;2024-02-15T02:53:03;100875.19;;;11.56;100.00
26112;BME280;13829;48.990;8.346;2024-02-15T02:55:30;100876.13;;;11.65;100.00
26112;BME280;13829;48.990;8.346;2024-02-15T02:57:57;100870.00;;;11.70;100.00
26112;BME280;13829;48.990;8.346;2024-02-15T03:00:26;100873.50;;;11.66;100.00
26112;BME280;13829;48.990;8.346;2024-02-15T03:02:53;100863.75;;;11.56;100.00
26112;BME280;13829;48.990;8.346;2024-02-15T03:05:21;100872.50;;;11.50;100.00
26112;BME280;13829;48.990;8.346;2024-02-15T03:07:48;100875.09;;;11.49;100.00
26112;BME280;13829;48.990;8.346;2024-02-15T03:10:17;100883.06;;;11.53;100.00
26112;BME280;13829;48.990;8.346;2024-02-15T03:12:44;100883.09;;;11.56;100.00
26112;BME280;13829;48.990;8.346;2024-02-15T03:15:13;100883.03;;;11.50;100.00
26112;BME280;13829;48.990;8.346;2024-02-15T03:17:43;100888.38;;;11.59;100.00
26112;BME280;13829;48.990;8.346;2024-02-15T03:20:12;100890.09;;;11.57;100.00
26112;BME280;13829;48.990;8.346;2024-02-15T03:22:50;100892.84;;;11.71;100.00
26112;BME280;13829;48.990;8.346;2024-02-15T03:25:18;100894.56;;;11.62;100.00
26112;BME280;13829;48.990;8.346;2024-02-15T03:27:45;100886.72;;;11.74;100.00
26112;BME280;13829;48.990;8.346;2024-02-15T03:30:12;100881.41;;;11.66;100.00
26112;BME280;13829;48.990;8.346;2024-02-15T03:32:41;100876.97;;;11.59;100.00
26112;BME280;13829;48.990;8.346;2024-02-15T03:35:08;100884.81;;;11.56;100.00
26112;BME280;13829;48.990;8.346;2024-02-15T03:37:35;100876.00;;;11.52;100.00
26112;BME280;13829;48.990;8.346;2024-02-15T03:40:03;100877.91;;;11.69;100.00
26112;BME280;13829;48.990;8.346;2024-02-15T03:42:30;100880.47;;;11.63;100.00
26112;BME280;13829;48.990;8.346;2024-02-15T03:44:57;100878.75;;;11.66;100.00
26112;BME280;13829;48.990;8.346;2024-02-15T03:47:27;100875.22;;;11.61;100.00
26112;BME280;13829;48.990;8.346;2024-02-15T03:49:56;100881.38;;;11.62;100.00
26112;BME280;13829;48.990;8.346;2024-02-15T03:52:23;100878.69;;;11.57;100.00
26112;BME280;13829;48.990;8.346;2024-02-15T03:54:50;100878.66;;;11.52;100.00
26112;BME280;13829;48.990;8.346;2024-02-15T03:57:19;100885.66;;;11.50;100.00
26112;BME280;13829;48.990;8.346;2024-02-15T03:59:46;100887.41;;;11.50;100.00
26112;BME280;13829;48.990;8.346;2024-02-15T04:02:16;100883.09;;;11.56;100.00
26112;BME280;13829;48.990;8.346;2024-02-15T04:04:44;100877.03;;;11.68;100.00
26112;BME280;13829;48.990;8.346;2024-02-15T04:07:14;100886.56;;;11.54;100.00
26112;BME280;13829;48.990;8.346;2024-02-15T04:09:42;100881.31;;;11.55;100.00
26112;BME280;13829;48.990;8.346;2024-02-15T04:12:09;100886.59;;;11.55;100.00
26112;BME280;13829;48.990;8.346;2024-02-15T04:14:39;100884.03;;;11.63;100.00
26112;BME280;13829;48.990;8.346;2024-02-15T04:17:06;100884.94;;;11.70;100.00
26112;BME280;13829;48.990;8.346;2024-02-15T04:19:34;100883.16;;;11.67;100.00
26112;BME280;13829;48.990;8.346;2024-02-15T04:22:00;100884.88;;;11.61;100.00
26112;BME280;13829;48.990;8.346;2024-02-15T04:24:31;100887.47;;;11.54;100.00
26112;BME280;13829;48.990;8.346;2024-02-15T04:26:58;100879.56;;;11.54;100.00
26112;BME280;13829;48.990;8.346;2024-02-15T04:29:25;100878.72;;;11.60;100.00
26112;BME280;13829;48.990;8.346;2024-02-15T04:31:52;100877.88;;;11.66;100.00
26112;BME280;13829;48.990;8.346;2024-02-15T04:34:20;100873.59;;;11.77;100.00
26112;BME280;13829;48.990;8.346;2024-02-15T04:36:48;100877.84;;;11.61;100.00
26112;BME280;13829;48.990;8.346;2024-02-15T04:39:16;100868.16;;;11.55;100.00
26112;BME280;13829;48.990;8.346;2024-02-15T04:41:51;100876.06;;;11.55;100.00
26112;BME280;13829;48.990;8.346;2024-02-15T04:44:18;100871.66;;;11.56;100.00
26112;BME280;13829;48.990;8.346;2024-02-15T04:46:46;100870.75;;;11.54;100.00
26112;BME280;13829;48.990;8.346;2024-02-15T04:49:13;100858.47;;;11.54;100.00
26112;BME280;13829;48.990;8.346;2024-02-15T04:51:40;100867.19;;;11.49;100.00
26112;BME280;13829;48.990;8.346;2024-02-15T04:54:07;100865.59;;;11.65;100.00
26112;BME280;13829;48.990;8.346;2024-02-15T04:56:38;100868.13;;;11.54;100.00
26112;BME280;13829;48.990;8.346;2024-02-15T04:59:07;100861.13;;;11.56;100.00
26112;BME280;13829;48.990;8.346;2024-02-15T05:01:35;100866.38;;;11.53;100.00
26112;BME280;13829;48.990;8.346;2024-02-15T05:04:02;100862.84;;;11.51;100.00
26112;BME280;13829;48.990;8.346;2024-02-15T05:06:29;100855.84;;;11.53;100.00
26112;BME280;13829;48.990;8.346;2024-02-15T05:08:57;100857.66;;;11.62;100.00
26112;BME280;13829;48.990;8.346;2024-02-15T05:11:26;100857.63;;;11.58;100.00
26112;BME280;13829;48.990;8.346;2024-02-15T05:13:57;100855.91;;;11.59;100.00
26112;BME280;13829;48.990;8.346;2024-02-15T05:16:26;100852.38;;;11.60;100.00
26112;BME280;13829;48.990;8.346;2024-02-15T05:18:53;100856.00;;;11.74;100.00
26112;BME280;13829;48.990;8.346;2024-02-15T05:21:20;100852.69;;;11.97;100.00
26112;BME280;13829;48.990;8.346;2024-02-15T05:23:47;100849.91;;;11.83;100.00
26112;BME280;13829;48.990;8.346;2024-02-15T05:26:14;100855.09;;;11.74;100.00
26112;BME280;13829;48.990;8.346;2024-02-15T05:28:42;100848.16;;;11.81;100.00
26112;BME280;13829;48.990;8.346;2024-02-15T05:31:11;100860.38;;;11.74;100.00
26112;BME280;13829;48.990;8.346;2024-02-15T05:33:41;100859.47;;;11.69;100.00
26112;BME280;13829;48.990;8.346;2024-02-15T05:36:10;100856.78;;;11.63;100.00
26112;BME280;13829;48.990;8.346;2024-02-15T05:38:38;100857.63;;;11.58;100.00
26112;BME280;13829;48.990;8.346;2024-02-15T05:41:05;100861.16;;;11.62;100.00
26112;BME280;13829;48.990;8.346;2024-02-15T05:43:33;100862.94;;;11.62;100.00
26112;BME280;13829;48.990;8.346;2024-02-15T05:46:02;100858.63;;;11.73;100.00
26112;BME280;13829;48.990;8.346;2024-02-15T05:48:29;100850.69;;;11.71;100.00
26112;BME280;13829;48.990;8.346;2024-02-15T05:50:57;100860.38;;;11.74;100.00
26112;BME280;13829;48.990;8.346;2024-02-15T05:53:26;100855.03;;;11.65;100.00
26112;BME280;13829;48.990;8.346;2024-02-15T05:55:53;100850.69;;;11.70;100.00
26112;BME280;13829;48.990;8.346;2024-02-15T05:58:20;100850.69;;;11.68;100.00
26112;BME280;13829;48.990;8.346;2024-02-15T06:00:47;100854.19;;;11.64;100.00
26112;BME280;13829;48.990;8.346;2024-02-15T06:03:15;100855.00;;;11.58;100.00
26112;BME280;13829;48.990;8.346;2024-02-15T06:05:42;100851.47;;;11.56;100.00
26112;BME280;13829;48.990;8.346;2024-02-15T06:08:11;100843.59;;;11.59;100.00
26112;BME280;13829;48.990;8.346;2024-02-15T06:10:39;100847.88;;;11.48;100.00
26112;BME280;13829;48.990;8.346;2024-02-15T06:13:06;100844.34;;;11.43;100.00
26112;BME280;13829;48.990;8.346;2024-02-15T06:15:34;100841.69;;;11.41;100.00
26112;BME280;13829;48.990;8.346;2024-02-15T06:18:01;100839.94;;;11.42;100.00
26112;BME280;13829;48.990;8.346;2024-02-15T06:20:35;100834.66;;;11.43;100.00
26112;BME280;13829;48.990;8.346;2024-02-15T06:23:02;100829.44;;;11.47;100.00
26112;BME280;13829;48.990;8.346;2024-02-15T06:25:32;100825.09;;;11.52;100.00
26112;BME280;13829;48.990;8.346;2024-02-15T06:27:59;100811.16;;;11.67;100.00
26112;BME280;13829;48.990;8.346;2024-02-15T06:30:28;100817.28;;;11.66;100.00
26112;BME280;13829;48.990;8.346;2024-02-15T06:33:13;100827.66;;;11.42;100.00
26112;BME280;13829;48.990;8.346;2024-02-15T06:35:57;100821.44;;;11.33;100.00
26112;BME280;13829;48.990;8.346;2024-02-15T06:38:42;100812.63;;;11.31;100.00
26112;BME280;13829;48.990;8.346;2024-02-15T06:41:28;100818.69;;;11.20;100.00
26112;BME280;13829;48.990;8.346;2024-02-15T06:43:55;100822.09;;;11.10;100.00
26112;BME280;13829;48.990;8.346;2024-02-15T06:46:21;100815.91;;;11.05;100.00
26112;BME280;13829;48.990;8.346;2024-02-15T06:48:49;100815.06;;;11.07;100.00
26112;BME280;13829;48.990;8.346;2024-02-15T06:51:16;100811.44;;;10.99;100.00
26112;BME280;13829;48.990;8.346;2024-02-15T06:53:42;100819.34;;;10.98;100.00
26112;BME280;13829;48.990;8.346;2024-02-15T06:56:10;100817.56;;;10.97;100.00
26112;BME280;13829;48.990;8.346;2024-02-15T06:58:38;100813.16;;;10.91;100.00
26112;BME280;13829;48.990;8.346;2024-02-15T07:01:06;100821.84;;;10.85;100.00
26112;BME280;13829;48.990;8.346;2024-02-15T07:03:33;100818.34;;;10.85;100.00
26112;BME280;13829;48.990;8.346;2024-02-15T07:06:00;100823.66;;;10.91;100.00
26112;BME280;13829;48.990;8.346;2024-02-15T07:08:28;100818.34;;;10.86;100.00
26112;BME280;13829;48.990;8.346;2024-02-15T07:10:55;100815.75;;;10.89;100.00
26112;BME280;13829;48.990;8.346;2024-02-15T07:13:22;100812.22;;;10.87;100.00
26112;BME280;13829;48.990;8.346;2024-02-15T07:15:53;100806.06;;;10.85;100.00
26112;BME280;13829;48.990;8.346;2024-02-15T07:18:20;100808.72;;;10.88;100.00
26112;BME280;13829;48.990;8.346;2024-02-15T07:20:48;100799.19;;;11.00;100.00
26112;BME280;13829;48.990;8.346;2024-02-15T07:23:14;100799.19;;;11.00;100.00
26112;BME280;13829;48.990;8.346;2024-02-15T07:25:41;100794.88;;;11.08;100.00
26112;BME280;13829;48.990;8.346;2024-02-15T07:28:08;100792.22;;;11.08;100.00
26112;BME280;13829;48.990;8.346;2024-02-15T07:30:35;100793.16;;;11.13;100.00
26112;BME280;13829;48.990;8.346;2024-02-15T07:33:05;100786.22;;;11.21;100.00
26112;BME280;13829;48.990;8.346;2024-02-15T07:35:32;100784.53;;;11.30;100.00
26112;BME280;13829;48.990;8.346;2024-02-15T07:38:00;100787.22;;;11.36;100.00
26112;BME280;13829;48.990;8.346;2024-02-15T07:40:28;100784.56;;;11.36;100.00
26112;BME280;13829;48.990;8.346;2024-02-15T07:42:57;100781.09;;;11.38;100.00
26112;BME280;13829;48.990;8.346;2024-02-15T07:45:24;100784.63;;;11.42;100.00
26112;BME280;13829;48.990;8.346;2024-02-15T07:47:51;100788.94;;;11.32;100.00
26112;BME280;13829;48.990;8.346;2024-02-15T07:50:20;100788.97;;;11.38;100.00
26112;BME280;13829;48.990;8.346;2024-02-15T07:52:49;100785.50;;;11.41;100.00
26112;BME280;13829;48.990;8.346;2024-02-15T07:55:16;100789.03;;;11.46;100.00
26112;BME280;13829;48.990;8.346;2024-02-15T07:57:43;100792.63;;;11.53;100.00
26112;BME280;13829;48.990;8.346;2024-02-15T08:00:12;100790.84;;;11.50;100.00
26112;BME280;13829;48.990;8.346;2024-02-15T08:02:42;100799.66;;;11.58;100.00
26112;BME280;13829;48.990;8.346;2024-02-15T08:05:11;100797.09;;;11.65;100.00
26112;BME280;13829;48.990;8.346;2024-02-15T08:07:44;100798.91;;;11.77;100.00
26112;BME280;13829;48.990;8.346;2024-02-15T08:10:13;100792.88;;;11.95;100.00
26112;BME280;13829;48.990;8.346;2024-02-15T08:12:41;100795.59;;;12.05;100.00
26112;BME280;13829;48.990;8.346;2024-02-15T08:15:09;100799.13;;;12.07;100.00
26112;BME280;13829;48.990;8.346;2024-02-15T08:17:39;100796.50;;;12.07;100.00
26112;BME280;13829;48.990;8.346;2024-02-15T08:20:09;100793.94;;;12.21;100.00
26112;BME280;13829;48.990;8.346;2024-02-15T08:22:36;100796.56;;;12.23;100.00
26112;BME280;13829;48.990;8.346;2024-02-15T08:25:08;100792.25;;;12.39;100.00
26112;BME280;13829;48.990;8.346;2024-02-15T08:27:37;100791.44;;;12.62;100.00
26112;BME280;13829;48.990;8.346;2024-02-15T08:30:09;100797.59;;;12.64;100.00
26112;BME280;13829;48.990;8.346;2024-02-15T08:32:38;100790.56;;;12.75;100.00
26112;BME280;13829;48.990;8.346;2024-02-15T08:35:06;100780.94;;;12.97;100.00
26112;BME280;13829;48.990;8.346;2024-02-15T08:37:34;100776.56;;;13.10;100.00
26112;BME280;13829;48.990;8.346;2024-02-15T08:40:02;100782.69;;;13.26;100.00
26112;BME280;13829;48.990;8.346;2024-02-15T08:42:31;100780.09;;;13.49;98.72
26112;BME280;13829;48.990;8.346;2024-02-15T08:44:58;100771.28;;;13.60;96.63
26112;BME280;13829;48.990;8.346;2024-02-15T08:47:25;100773.91;;;13.72;94.81
26112;BME280;13829;48.990;8.346;2024-02-15T08:49:52;100768.59;;;13.77;94.01
26112;BME280;13829;48.990;8.346;2024-02-15T08:52:19;100774.75;;;13.80;93.50
26112;BME280;13829;48.990;8.346;2024-02-15T08:54:46;100772.97;;;13.85;93.81
26112;BME280;13829;48.990;8.346;2024-02-15T08:57:13;100774.72;;;13.99;92.50
26112;BME280;13829;48.990;8.346;2024-02-15T08:59:41;100765.94;;;13.88;91.51
26112;BME280;13829;48.990;8.346;2024-02-15T09:02:08;100765.94;;;13.88;92.91
26112;BME280;13829;48.990;8.346;2024-02-15T09:04:35;100770.31;;;13.96;92.51
26112;BME280;13829;48.990;8.346;2024-02-15T09:07:02;100771.19;;;14.00;91.91
26112;BME280;13829;48.990;8.346;2024-02-15T09:09:30;100771.19;;;14.00;90.32
26112;BME280;13829;48.990;8.346;2024-02-15T09:12:01;100768.50;;;14.05;88.50
26112;BME280;13829;48.990;8.346;2024-02-15T09:14:31;100774.69;;;14.02;88.44
26112;BME280;13829;48.990;8.346;2024-02-15T09:17:00;100770.25;;;14.15;88.12
26112;BME280;13829;48.990;8.346;2024-02-15T09:19:32;100764.91;;;14.24;88.03
26112;BME280;13829;48.990;8.346;2024-02-15T09:21:59;100764.91;;;14.26;88.50
26112;BME280;13829;48.990;8.346;2024-02-15T09:24:26;100762.28;;;14.19;86.06
26112;BME280;13829;48.990;8.346;2024-02-15T09:26:54;100761.41;;;14.14;86.90
26112;BME280;13829;48.990;8.346;2024-02-15T09:29:21;100761.41;;;14.25;87.43
26112;BME280;13829;48.990;8.346;2024-02-15T09:31:50;100759.56;;;14.37;86.69
26112;BME280;13829;48.990;8.346;2024-02-15T09:34:19;100755.19;;;14.31;83.87
26112;BME280;13829;48.990;8.346;2024-02-15T09:36:46;100762.25;;;14.29;83.11
26112;BME280;13829;48.990;8.346;2024-02-15T09:39:13;100762.25;;;14.29;82.46
26112;BME280;13829;48.990;8.346;2024-02-15T09:41:40;100752.56;;;14.28;80.09
26112;BME280;13829;48.990;8.346;2024-02-15T09:44:09;100752.50;;;14.37;79.14
26112;BME280;13829;48.990;8.346;2024-02-15T09:46:43;100748.97;;;14.38;79.54
26112;BME280;13829;48.990;8.346;2024-02-15T09:49:12;100741.16;;;14.16;80.84
26112;BME280;13829;48.990;8.346;2024-02-15T09:51:42;100738.44;;;14.26;81.47
26112;BME280;13829;48.990;8.346;2024-02-15T09:54:10;100728.72;;;14.35;79.46
26112;BME280;13829;48.990;8.346;2024-02-15T09:56:41;100728.69;;;14.37;79.43
26112;BME280;13829;48.990;8.346;2024-02-15T09:59:08;100723.44;;;14.29;79.27
26112;BME280;13829;48.990;8.346;2024-02-15T10:01:37;100718.16;;;14.26;79.68
26112;BME280;13829;48.990;8.346;2024-02-15T10:04:06;100709.34;;;14.29;79.96
26112;BME280;13829;48.990;8.346;2024-02-15T10:06:33;100724.28;;;14.34;79.87
26112;BME280;13829;48.990;8.346;2024-02-15T10:09:29;100711.03;;;14.45;80.23
26112;BME280;13829;48.990;8.346;2024-02-15T10:11:58;100705.59;;;14.64;79.59
26112;BME280;13829;48.990;8.346;2024-02-15T10:14:25;100708.16;;;14.81;79.39
26112;BME280;13829;48.990;8.346;2024-02-15T10:16:53;100701.81;;;14.99;78.96
26112;BME280;13829;48.990;8.346;2024-02-15T10:19:21;100705.41;;;14.95;77.03
26112;BME280;13829;48.990;8.346;2024-02-15T10:21:52;100702.75;;;14.93;77.40
26112;BME280;13829;48.990;8.346;2024-02-15T10:24:22;100700.81;;;15.15;77.25
26112;BME280;13829;48.990;8.346;2024-02-15T10:26:51;100698.06;;;15.25;76.29
26112;BME280;13829;48.990;8.346;2024-02-15T10:29:19;100705.88;;;15.37;74.89
26112;BME280;13829;48.990;8.346;2024-02-15T10:31:54;100699.81;;;15.29;73.96
26112;BME280;13829;48.990;8.346;2024-02-15T10:34:21;100697.13;;;15.27;75.06
26112;BME280;13829;48.990;8.346;2024-02-15T10:36:49;100698.91;;;15.31;76.08
26112;BME280;13829;48.990;8.346;2024-02-15T10:39:17;100699.53;;;15.54;74.19
26112;BME280;13829;48.990;8.346;2024-02-15T10:41:47;100700.34;;;15.59;74.86
26112;BME280;13829;48.990;8.346;2024-02-15T10:44:21;100703.00;;;15.62;73.46
26112;BME280;13829;48.990;8.346;2024-02-15T10:46:50;100703.75;;;15.73;72.07
26112;BME280;13829;48.990;8.346;2024-02-15T10:49:19;100699.25;;;15.81;72.50
26112;BME280;13829;48.990;8.346;2024-02-15T10:51:52;100697.28;;;15.96;71.31
26112;BME280;13829;48.990;8.346;2024-02-15T10:54:42;100688.50;;;15.94;68.93
26112;BME280;13829;48.990;8.346;2024-02-15T10:57:11;100688.63;;;15.85;67.89
26112;BME280;13829;48.990;8.346;2024-02-15T10:59:54;100678.72;;;15.97;69.39
26112;BME280;13829;48.990;8.346;2024-02-15T11:02:27;100682.16;;;16.06;70.53
26112;BME280;13829;48.990;8.346;2024-02-15T11:05:02;100675.84;;;16.14;69.25
26112;BME280;13829;48.990;8.346;2024-02-15T11:07:31;100679.13;;;16.32;69.48
26112;BME280;13829;48.990;8.346;2024-02-15T11:09:59;100677.28;;;16.37;69.63
26112;BME280;13829;48.990;8.346;2024-02-15T11:12:29;100672.81;;;16.41;67.30
26112;BME280;13829;48.990;8.346;2024-02-15T11:14:58;100667.25;;;16.59;67.33
26112;BME280;13829;48.990;8.346;2024-02-15T11:17:46;100676.06;;;16.60;67.50
26112;BME280;13829;48.990;8.346;2024-02-15T11:20:45;100662.69;;;16.66;67.79
26112;BME280;13829;48.990;8.346;2024-02-15T11:23:24;100659.16;;;16.67;67.04
26112;BME280;13829;48.990;8.346;2024-02-15T11:25:53;100656.56;;;16.62;66.97
26112;BME280;13829;48.990;8.346;2024-02-15T11:28:43;100644.13;;;16.63;65.24
26112;BME280;13829;48.990;8.346;2024-02-15T11:31:53;100646.88;;;16.60;67.96
26112;BME280;13829;48.990;8.346;2024-02-15T11:34:43;100641.38;;;16.69;67.78
26112;BME280;13829;48.990;8.346;2024-02-15T11:37:55;100636.16;;;16.66;69.35
26112;BME280;13829;48.990;8.346;2024-02-15T11:40:25;100632.63;;;16.64;69.20
26112;BME280;13829;48.990;8.346;2024-02-15T11:42:54;100634.31;;;16.70;67.91
26112;BME280;13829;48.990;8.346;2024-02-15T11:45:23;100628.22;;;16.63;66.67
26112;BME280;13829;48.990;8.346;2024-02-15T11:47:53;100624.59;;;16.69;66.98
26112;BME280;13829;48.990;8.346;2024-02-15T11:50:22;100614.84;;;16.69;67.15
26112;BME280;13829;48.990;8.346;2024-02-15T11:52:51;100615.69;;;16.71;66.51
26112;BME280;13829;48.990;8.346;2024-02-15T11:55:20;100614.09;;;16.61;64.22
26112;BME280;13829;48.990;8.346;2024-02-15T11:57:57;100605.94;;;16.73;64.03
26112;BME280;13829;48.990;8.346;2024-02-15T12:00:31;100607.41;;;16.90;63.45
26112;BME280;13829;48.990;8.346;2024-02-15T12:03:18;100594.13;;;16.91;66.20
26112;BME280;13829;48.990;8.346;2024-02-15T12:06:04;100594.97;;;16.95;66.40
26112;BME280;13829;48.990;8.346;2024-02-15T12:08:50;100593.09;;;16.99;65.75
26112;BME280;13829;48.990;8.346;2024-02-15T12:11:35;100600.31;;;16.92;66.71
26112;BME280;13829;48.990;8.346;2024-02-15T12:14:20;100593.13;;;16.97;66.28
26112;BME280;13829;48.990;8.346;2024-02-15T12:17:05;100584.41;;;16.89;67.05
26112;BME280;13829;48.990;8.346;2024-02-15T12:19:54;100591.50;;;16.87;65.96
26112;BME280;13829;48.990;8.346;2024-02-15T12:22:27;100584.91;;;16.61;62.40
26112;BME280;13829;48.990;8.346;2024-02-15T12:24:59;100577.56;;;16.75;63.91
26112;BME280;13829;48.990;8.346;2024-02-15T12:27:27;100578.44;;;16.74;62.58
26112;BME280;13829;48.990;8.346;2024-02-15T12:29:57;100585.47;;;16.78;62.12
26112;BME280;13829;48.990;8.346;2024-02-15T12:32:26;100581.06;;;16.77;62.03
26112;BME280;13829;48.990;8.346;2024-02-15T12:35:10;100578.16;;;16.93;63.13
26112;BME280;13829;48.990;8.346;2024-02-15T12:37:41;100564.69;;;17.02;64.18
26112;BME280;13829;48.990;8.346;2024-02-15T12:40:12;100570.78;;;17.09;63.44
26112;BME280;13829;48.990;8.346;2024-02-15T12:42:42;100560.91;;;17.16;64.61
26112;BME280;13829;48.990;8.346;2024-02-15T12:45:16;100554.72;;;17.14;61.49
26112;BME280;13829;48.990;8.346;2024-02-15T12:47:47;100544.22;;;17.07;61.78
26112;BME280;13829;48.990;8.346;2024-02-15T12:50:18;100538.78;;;17.15;61.82
26112;BME280;13829;48.990;8.346;2024-02-15T12:52:46;100529.66;;;17.27;62.25
26112;BME280;13829;48.990;8.346;2024-02-15T12:55:16;100533.78;;;17.42;62.66